Time;durP1;ratioP1;P1;durP2;ratioP2;P2;SDS_P1;SDS_P2;PMS_P1;PMS_P2;Temp;Humidity;BMP_temperature;BMP_pressure;BME280_temperature;BME280_humidity;BME280_pressure;Samples;Min_cycle;Max_cycle;Signal;HPM_P1;HPM_P2
2022/12/04 00:02:43;;;;;;;0.25;0.25;;;;;;;-1.18;100.00;96382.91;4973279;28;20693;-72
2022/12/04 00:05:29;;;;;;;0.20;0.20;;;;;;;-1.25;100.00;96384.59;4978928;28;20050;-72
2022/12/04 00:08:15;;;;;;;0.20;0.20;;;;;;;-1.30;100.00;96383.50;4975248;28;20074;-75
2022/12/04 00:11:02;;;;;;;0.20;0.20;;;;;;;-1.27;100.00;96381.34;4974815;28;20046;-75
2022/12/04 00:13:48;;;;;;;0.17;0.17;;;;;;;-1.15;100.00;96381.75;4974488;28;20042;-75
2022/12/04 00:16:34;;;;;;;0.20;0.20;;;;;;;-1.41;100.00;96375.03;4976069;28;20526;-75
2022/12/04 00:19:20;;;;;;;0.20;0.20;;;;;;;-1.19;100.00;96378.66;4972506;28;20050;-74
2022/12/04 00:22:06;;;;;;;0.20;0.20;;;;;;;-1.33;100.00;96387.28;4974857;28;20502;-73
2022/12/04 00:24:52;;;;;;;0.20;0.20;;;;;;;-1.37;100.00;96377.34;4975013;28;20968;-71
2022/12/04 00:27:38;;;;;;;0.20;0.20;;;;;;;-1.41;100.00;96372.41;4976438;28;20081;-74
2022/12/04 00:30:24;;;;;;;0.20;0.20;;;;;;;-1.47;100.00;96375.75;4975783;28;20067;-71
2022/12/04 00:33:12;;;;;;;0.20;0.20;;;;;;;-1.64;100.00;96379.47;4965069;28;20086;-75
2022/12/04 00:36:00;;;;;;;0.20;0.20;;;;;;;-1.45;100.00;96375.59;4977652;28;20040;-74
2022/12/04 00:38:46;;;;;;;0.20;0.20;;;;;;;-1.52;100.00;96383.34;4975477;28;20386;-75
2022/12/04 00:41:32;;;;;;;0.20;0.20;;;;;;;-1.42;100.00;96388.34;4977368;28;20054;-75
2022/12/04 00:44:18;;;;;;;0.20;0.20;;;;;;;-1.50;100.00;96388.41;4976320;28;20049;-73
2022/12/04 00:47:06;;;;;;;0.20;0.20;;;;;;;-1.45;100.00;96386.91;4976240;28;20046;-75
2022/12/04 00:49:52;;;;;;;0.20;0.20;;;;;;;-1.53;100.00;96376.47;4975555;28;20047;-73
2022/12/04 00:52:38;;;;;;;0.20;0.20;;;;;;;-1.52;100.00;96393.84;4962751;28;20037;-73
2022/12/04 00:55:24;;;;;;;0.20;0.20;;;;;;;-1.57;100.00;96384.84;4975946;28;20140;-74
2022/12/04 00:58:10;;;;;;;0.20;0.20;;;;;;;-1.49;100.00;96384.78;4975946;28;20136;-75
2022/12/04 01:01:15;;;;;;;0.20;0.20;;;;;;;-1.38;100.00;96376.50;4972504;28;20593;-74
2022/12/04 01:04:01;;;;;;;0.20;0.20;;;;;;;-1.52;100.00;96370.22;4960210;28;20174;-71
2022/12/04 01:06:47;;;;;;;0.20;0.20;;;;;;;-1.52;100.00;96374.66;4976683;28;20042;-72
2022/12/04 01:09:33;;;;;;;0.20;0.20;;;;;;;-1.50;100.00;96376.09;4976868;28;20040;-75
2022/12/04 01:12:19;;;;;;;0.20;0.20;;;;;;;-1.58;100.00;96376.16;4977687;28;20054;-74
2022/12/04 01:15:06;;;;;;;0.20;0.20;;;;;;;-1.51;100.00;96384.16;4976558;28;20549;-73
2022/12/04 01:17:52;;;;;;;0.20;0.20;;;;;;;-1.53;100.00;96379.09;4974231;28;20331;-73
2022/12/04 01:20:38;;;;;;;0.20;0.20;;;;;;;-1.62;100.00;96387.19;4974540;28;20041;-75
2022/12/04 01:23:24;;;;;;;0.20;0.20;;;;;;;-1.55;100.00;96385.50;4975207;28;20552;-74
2022/12/04 01:26:11;;;;;;;0.20;0.20;;;;;;;-1.62;100.00;96385.38;4976464;28;20510;-74
2022/12/04 01:28:57;;;;;;;0.20;0.20;;;;;;;-1.49;100.00;96379.53;4973624;28;20046;-74
2022/12/04 01:31:43;;;;;;;0.20;0.20;;;;;;;-1.76;100.00;96368.56;4973884;28;20065;-74
2022/12/04 01:34:29;;;;;;;0.20;0.20;;;;;;;-1.70;100.00;96364.44;4975748;28;20042;-74
2022/12/04 01:37:15;;;;;;;0.10;0.10;;;;;;;-1.54;100.00;96369.56;4965098;28;20402;-74
2022/12/04 01:40:02;;;;;;;0.20;0.20;;;;;;;-1.66;100.00;96368.34;4974618;28;20452;-72
2022/12/04 01:42:48;;;;;;;0.20;0.20;;;;;;;-1.65;100.00;96354.22;4975042;28;20156;-74
2022/12/04 01:45:37;;;;;;;0.20;0.20;;;;;;;-1.46;100.00;96364.28;4975857;28;20552;-74
2022/12/04 01:48:30;;;;;;;0.10;0.10;;;;;;;-1.59;100.00;96350.91;4974362;28;20544;-74
2022/12/04 01:51:27;;;;;;;0.20;0.20;;;;;;;-1.70;100.00;96357.38;4974099;28;20239;-73
2022/12/04 01:54:19;;;;;;;0.30;0.30;;;;;;;-1.69;100.00;96358.19;4974917;28;20046;-74
2022/12/04 01:57:18;;;;;;;0.20;0.20;;;;;;;-1.80;100.00;96350.72;4953478;28;20049;-71
2022/12/04 02:00:12;;;;;;;0.20;0.20;;;;;;;-1.84;100.00;96357.31;4964853;28;20042;-73
2022/12/04 02:02:58;;;;;;;0.20;0.20;;;;;;;-1.69;100.00;96343.28;4977741;28;20121;-74
2022/12/04 02:05:44;;;;;;;0.20;0.20;;;;;;;-1.89;100.00;96346.50;4974343;28;20080;-74
2022/12/04 02:08:31;;;;;;;0.20;0.20;;;;;;;-1.91;100.00;96343.25;4978088;28;20473;-73
2022/12/04 02:11:38;;;;;;;0.20;0.20;;;;;;;-1.83;100.00;96341.41;4977292;28;20423;-71
2022/12/04 02:14:34;;;;;;;0.20;0.20;;;;;;;-1.76;100.00;96342.34;4959148;28;20157;-75
2022/12/04 02:17:31;;;;;;;0.20;0.20;;;;;;;-1.69;100.00;96350.34;4974625;28;20045;-72
2022/12/04 02:20:23;;;;;;;0.20;0.20;;;;;;;-1.73;100.00;96351.66;4974834;28;20093;-75
2022/12/04 02:23:19;;;;;;;0.20;0.20;;;;;;;-2.07;100.00;96357.28;4974179;28;20048;-73
2022/12/04 02:26:52;;;;;;;0.20;0.20;;;;;;;-1.92;100.00;96352.13;4974391;28;21312;-75
2022/12/04 02:29:43;;;;;;;0.20;0.20;;;;;;;-1.95;100.00;96342.78;4972707;28;20281;-73
2022/12/04 02:32:52;;;;;;;0.20;0.20;;;;;;;-1.88;100.00;96353.38;4975067;28;20046;-73
2022/12/04 02:35:51;;;;;;;0.20;0.20;;;;;;;-1.86;100.00;96346.19;4960716;28;20582;-74
2022/12/04 02:38:42;;;;;;;0.20;0.20;;;;;;;-1.92;100.00;96344.25;4972417;28;20046;-75
2022/12/04 02:41:44;;;;;;;0.20;0.20;;;;;;;-1.84;100.00;96349.44;4974004;28;20277;-73
2022/12/04 02:44:37;;;;;;;0.10;0.10;;;;;;;-1.64;100.00;96347.97;4974790;28;20073;-75
2022/12/04 02:47:25;;;;;;;0.20;0.20;;;;;;;-1.60;100.00;96349.28;4975176;28;20086;-74
2022/12/04 02:50:18;;;;;;;0.20;0.20;;;;;;;-1.78;100.00;96356.63;4974234;28;20489;-74
2022/12/04 02:53:25;;;;;;;0.20;0.20;;;;;;;-1.70;100.00;96352.13;4972167;28;20054;-72
2022/12/04 02:56:16;;;;;;;0.20;0.20;;;;;;;-1.71;100.00;96347.06;4972385;28;21048;-74
2022/12/04 02:59:07;;;;;;;0.20;0.20;;;;;;;-1.72;100.00;96358.53;4964516;28;20061;-74
2022/12/04 03:01:56;;;;;;;0.20;0.20;;;;;;;-1.83;100.00;96356.31;4974598;28;20494;-74
2022/12/04 03:04:46;;;;;;;0.20;0.20;;;;;;;-1.71;100.00;96358.38;4979314;28;20388;-74
2022/12/04 03:07:45;;;;;;;0.20;0.20;;;;;;;-1.68;100.00;96362.47;4977290;28;20042;-73
2022/12/04 03:10:37;;;;;;;0.20;0.20;;;;;;;-1.61;100.00;96368.66;4979375;28;20046;-73
2022/12/04 03:13:27;;;;;;;;;;;;;;;-1.54;100.00;96361.72;4980228;28;20046;-73
2022/12/04 03:16:19;;;;;;;0.20;0.20;;;;;;;-1.45;100.00;96365.91;4978083;28;20233;-73
2022/12/04 03:19:15;;;;;;;;;;;;;;;-1.43;100.00;96365.72;4976843;28;20890;-72
2022/12/04 03:22:05;;;;;;;0.30;0.30;;;;;;;-1.58;100.00;96363.03;4976763;28;20521;-74
2022/12/04 03:24:53;;;;;;;0.20;0.20;;;;;;;-1.79;100.00;96368.94;4974355;28;20089;-74
2022/12/04 03:28:12;;;;;;;0.20;0.20;;;;;;;-1.99;100.00;96360.66;4976064;28;20100;-73
2022/12/04 03:31:04;;;;;;;0.20;0.20;;;;;;;-1.80;100.00;96374.31;4976332;28;20104;-75
2022/12/04 03:33:53;;;;;;;0.20;0.20;;;;;;;-1.69;100.00;96373.94;4962272;28;20070;-75
2022/12/04 03:36:51;;;;;;;0.20;0.20;;;;;;;-1.72;100.00;96366.41;4979812;28;20140;-72
2022/12/04 03:40:05;;;;;;;0.20;0.20;;;;;;;-1.62;100.00;96360.94;4977305;28;20184;-72
2022/12/04 03:43:04;;;;;;;0.20;0.20;;;;;;;-1.50;100.00;96362.97;4978043;28;20133;-72
2022/12/04 03:46:30;;;;;;;0.20;0.20;;;;;;;-1.47;100.00;96357.38;4978285;28;20236;-75
2022/12/04 03:49:36;;;;;;;0.20;0.20;;;;;;;-1.47;100.00;96360.00;4975972;28;20049;-71
2022/12/04 03:52:59;;;;;;;0.20;0.20;;;;;;;-1.49;100.00;96363.78;4975157;28;20046;-72
2022/12/04 03:55:57;;;;;;;0.20;0.20;;;;;;;-1.58;100.00;96349.91;4976791;28;20045;-73
2022/12/04 03:58:56;;;;;;;0.20;0.20;;;;;;;-1.65;100.00;96345.53;4978906;28;20074;-74
2022/12/04 04:01:47;;;;;;;0.20;0.20;;;;;;;-1.74;100.00;96345.59;4960849;28;20050;-74
2022/12/04 04:04:36;;;;;;;0.20;0.20;;;;;;;-1.74;100.00;96355.28;4976375;28;20150;-74
2022/12/04 04:07:29;;;;;;;0.20;0.20;;;;;;;-1.81;100.00;96349.91;4969254;28;20111;-71
2022/12/04 04:10:18;;;;;;;0.20;0.20;;;;;;;-1.81;100.00;96352.53;4961711;28;20097;-72
2022/12/04 04:25:30;;;;;;;0.20;0.20;;;;;;;-1.77;100.00;96342.50;4977100;28;20042;-72
2022/12/04 04:28:29;;;;;;;0.20;0.20;;;;;;;-1.63;100.00;96341.78;4976615;28;20266;-74
2022/12/04 04:31:41;;;;;;;0.20;0.20;;;;;;;-1.94;100.00;96348.88;4975753;28;20046;-74
2022/12/04 04:34:42;;;;;;;0.20;0.20;;;;;;;-1.91;100.00;96338.00;4966434;28;20048;-74
2022/12/04 04:37:48;;;;;;;0.20;0.20;;;;;;;-1.94;100.00;96338.38;4979745;28;20053;-74
2022/12/04 04:40:47;;;;;;;0.20;0.20;;;;;;;-1.94;100.00;96336.56;4976371;28;20422;-73
2022/12/04 04:43:50;;;;;;;0.20;0.20;;;;;;;-1.90;100.00;96340.47;4977784;28;20054;-73
2022/12/04 04:46:42;;;;;;;0.20;0.20;;;;;;;-1.83;100.00;96348.44;4966449;28;20369;-72
2022/12/04 04:49:32;;;;;;;0.20;0.20;;;;;;;-1.82;100.00;96355.31;4975944;28;20037;-71
2022/12/04 04:52:21;;;;;;;0.20;0.20;;;;;;;-2.07;100.00;96350.22;4973380;28;21141;-73
2022/12/04 04:55:08;;;;;;;0.20;0.20;;;;;;;-2.02;100.00;96350.53;4976865;28;21013;-72
2022/12/04 04:58:08;;;;;;;0.20;0.20;;;;;;;-2.00;100.00;96351.16;4975025;28;20668;-74
2022/12/04 05:00:54;;;;;;;0.20;0.20;;;;;;;-1.97;100.00;96342.94;4976591;28;20121;-73
2022/12/04 05:03:40;;;;;;;0.20;0.20;;;;;;;-1.97;100.00;96345.56;4977679;28;20529;-73
2022/12/04 05:06:26;;;;;;;0.20;0.20;;;;;;;-1.96;100.00;96341.16;4978439;28;20054;-73
2022/12/04 05:09:12;;;;;;;0.20;0.20;;;;;;;-1.98;100.00;96345.75;4974704;28;20129;-73
2022/12/04 05:11:58;;;;;;;0.20;0.20;;;;;;;-2.03;100.00;96343.63;4977671;28;20046;-72
2022/12/04 05:14:46;;;;;;;0.20;0.20;;;;;;;-2.20;100.00;96336.84;4976103;28;20038;-73
2022/12/04 05:17:34;;;;;;;0.20;0.20;;;;;;;-1.99;100.00;96336.25;4976067;28;20052;-72
2022/12/04 05:20:20;;;;;;;0.20;0.20;;;;;;;-1.99;100.00;96328.38;4976319;28;20509;-73
2022/12/04 05:23:06;;;;;;;0.20;0.20;;;;;;;-2.02;100.00;96342.66;4974948;28;20546;-73
2022/12/04 05:25:58;;;;;;;0.20;0.20;;;;;;;-1.99;100.00;96336.25;4975581;28;20038;-73
2022/12/04 05:28:44;;;;;;;0.20;0.20;;;;;;;-1.99;100.00;96338.88;4976930;28;20292;-74
2022/12/04 05:31:30;;;;;;;0.20;0.20;;;;;;;-2.06;100.00;96330.88;4974929;28;20707;-73
2022/12/04 05:34:16;;;;;;;0.20;0.20;;;;;;;-2.05;100.00;96350.88;4975440;28;20598;-74
2022/12/04 05:37:02;;;;;;;0.17;0.17;;;;;;;-2.00;100.00;96351.16;4974855;28;20074;-73
2022/12/04 05:39:48;;;;;;;0.20;0.20;;;;;;;-1.91;100.00;96351.94;4965815;28;20325;-74
2022/12/04 05:42:34;;;;;;;0.20;0.20;;;;;;;-1.82;100.00;96352.72;4965787;28;20389;-75
2022/12/04 05:45:22;;;;;;;0.20;0.20;;;;;;;-1.88;100.00;96342.91;4975278;28;20395;-73
2022/12/04 05:48:08;;;;;;;0.20;0.20;;;;;;;-2.07;100.00;96344.16;4973826;28;20667;-74
2022/12/04 05:50:53;;;;;;;0.20;0.20;;;;;;;-2.01;100.00;96348.72;4964456;28;20048;-75
2022/12/04 05:53:39;;;;;;;0.20;0.20;;;;;;;-1.85;100.00;96346.00;4978262;28;20053;-73
2022/12/04 05:56:25;;;;;;;0.20;0.20;;;;;;;-1.82;100.00;96342.22;4976247;28;20052;-75
2022/12/04 05:59:12;;;;;;;0.22;0.22;;;;;;;-1.86;100.00;96341.75;4976061;28;20493;-72
2022/12/04 06:01:58;;;;;;;0.30;0.30;;;;;;;-1.84;100.00;96349.44;4975579;28;20050;-71
2022/12/04 06:04:44;;;;;;;0.20;0.20;;;;;;;-2.10;100.00;96349.75;4974534;28;20038;-73
2022/12/04 06:07:30;;;;;;;0.20;0.20;;;;;;;-1.99;100.00;96336.25;4974863;28;20487;-71
2022/12/04 06:10:15;;;;;;;0.20;0.20;;;;;;;-1.98;100.00;96338.69;4976360;28;20053;-71
2022/12/04 06:13:03;;;;;;;0.20;0.20;;;;;;;-2.06;100.00;96345.81;4966604;28;20751;-71
2022/12/04 06:15:49;;;;;;;0.20;0.20;;;;;;;-2.07;100.00;96326.63;4949876;28;20068;-71
2022/12/04 06:18:35;;;;;;;0.20;0.20;;;;;;;-2.24;100.00;96332.94;4976109;28;20385;-71
2022/12/04 06:21:23;;;;;;;0.20;0.20;;;;;;;-2.16;100.00;96337.34;4965300;28;20049;-72
2022/12/04 06:24:18;;;;;;;0.20;0.20;;;;;;;-2.07;100.00;96333.69;4975305;28;20037;-74
2022/12/04 06:27:04;;;;;;;0.20;0.20;;;;;;;-2.19;100.00;96332.41;4974365;28;20100;-75
2022/12/04 06:29:50;;;;;;;0.20;0.20;;;;;;;-2.12;100.00;96331.56;4977101;28;20044;-73
2022/12/04 06:32:36;;;;;;;0.20;0.20;;;;;;;-2.03;100.00;96334.94;4973553;28;20511;-71
2022/12/04 06:35:21;;;;;;;0.20;0.20;;;;;;;-2.03;100.00;96332.31;4973733;28;20395;-74
2022/12/04 06:38:07;;;;;;;0.20;0.20;;;;;;;-2.10;100.00;96328.75;4971984;28;20554;-74
2022/12/04 06:40:53;;;;;;;0.20;0.20;;;;;;;-2.06;100.00;96341.38;4963918;28;20431;-72
2022/12/04 06:43:40;;;;;;;0.20;0.20;;;;;;;-1.91;100.00;96344.06;4962186;28;20592;-73
2022/12/04 06:46:31;;;;;;;0.20;0.20;;;;;;;-2.04;100.00;96339.38;4976327;28;20387;-73
2022/12/04 06:49:21;;;;;;;0.20;0.20;;;;;;;-2.09;100.00;96369.75;4973331;28;20685;-75
2022/12/04 06:52:07;;;;;;;0.20;0.20;;;;;;;-2.04;100.00;96365.59;4971320;28;20037;-75
2022/12/04 06:54:53;;;;;;;0.20;0.20;;;;;;;-2.08;100.00;96369.56;4964291;28;20053;-76
2022/12/04 06:57:39;;;;;;;0.20;0.20;;;;;;;-2.00;100.00;96363.47;4975249;28;20070;-77
2022/12/04 07:00:25;;;;;;;0.20;0.20;;;;;;;-1.98;100.00;96366.72;4976241;28;20050;-74
2022/12/04 07:03:10;;;;;;;0.20;0.20;;;;;;;-2.00;100.00;96371.34;4973460;28;20041;-75
2022/12/04 07:05:56;;;;;;;0.20;0.20;;;;;;;-1.94;100.00;96359.34;4975258;28;20495;-74
2022/12/04 07:08:44;;;;;;;0.20;0.20;;;;;;;-1.86;100.00;96359.31;4975017;28;20877;-75
2022/12/04 07:11:32;;;;;;;0.20;0.20;;;;;;;-1.85;100.00;96355.69;4975790;28;20184;-74
2022/12/04 07:14:18;;;;;;;0.20;0.20;;;;;;;-1.65;100.00;96356.03;4974637;28;20048;-74
2022/12/04 07:17:04;;;;;;;0.20;0.20;;;;;;;-1.86;100.00;96364.56;4975870;28;20049;-73
2022/12/04 07:19:50;;;;;;;0.20;0.20;;;;;;;-1.93;100.00;96361.78;4973176;28;20042;-75
2022/12/04 07:22:36;;;;;;;0.20;0.20;;;;;;;-1.73;100.00;96377.88;4972838;28;20041;-76
2022/12/04 07:25:22;;;;;;;0.20;0.20;;;;;;;-1.84;100.00;96370.44;4975951;28;20498;-75
2022/12/04 07:28:08;;;;;;;0.20;0.20;;;;;;;-1.83;100.00;96372.88;4972509;28;20113;-76
2022/12/04 07:30:54;;;;;;;0.20;0.20;;;;;;;-1.89;100.00;96365.69;4969164;28;20046;-75
2022/12/04 07:33:40;;;;;;;0.20;0.20;;;;;;;-1.71;100.00;96375.94;4631215;28;10000747;-75
2022/12/04 07:36:26;;;;;;;0.20;0.20;;;;;;;-1.78;100.00;96377.63;4975678;28;20395;-73
2022/12/04 07:39:12;;;;;;;0.20;0.20;;;;;;;-1.85;100.00;96374.06;4965696;28;20044;-73
2022/12/04 07:41:58;;;;;;;0.20;0.20;;;;;;;-1.78;100.00;96375.00;4967470;28;20046;-75
2022/12/04 07:44:44;;;;;;;0.20;0.20;;;;;;;-1.90;100.00;96361.44;4976238;28;20121;-76
2022/12/04 07:47:30;;;;;;;0.20;0.20;;;;;;;-1.77;100.00;96371.38;4974600;28;20341;-76
2022/12/04 07:50:16;;;;;;;0.20;0.20;;;;;;;-1.72;100.00;96354.09;4978408;28;20583;-75
2022/12/04 07:53:02;;;;;;;0.20;0.20;;;;;;;-1.63;100.00;96370.63;4974984;28;20415;-75
2022/12/04 07:55:51;;;;;;;0.20;0.20;;;;;;;-1.80;100.00;96366.47;4634274;28;9999823;-75
2022/12/04 07:58:40;;;;;;;0.20;0.20;;;;;;;-1.78;100.00;96356.63;4974514;28;20442;-75
2022/12/04 08:01:26;;;;;;;0.20;0.20;;;;;;;-2.00;100.00;96364.28;4975251;28;20123;-75
2022/12/04 08:04:12;;;;;;;0.20;0.20;;;;;;;-1.96;100.00;96352.44;4967645;28;20034;-75
2022/12/04 08:06:58;;;;;;;0.20;0.20;;;;;;;-1.96;100.00;96355.06;4975894;28;20049;-76
2022/12/04 08:09:44;;;;;;;0.20;0.20;;;;;;;-2.01;100.00;96349.53;4963065;28;20054;-75
2022/12/04 08:12:31;;;;;;;0.20;0.20;;;;;;;-1.88;100.00;96348.16;4964206;28;20054;-73
2022/12/04 08:15:17;;;;;;;0.20;0.20;;;;;;;-1.82;100.00;96355.31;4975311;28;20232;-75
2022/12/04 08:18:03;;;;;;;0.20;0.20;;;;;;;-1.73;100.00;96351.66;4975797;28;20116;-73
2022/12/04 08:20:49;;;;;;;0.20;0.20;;;;;;;-1.77;100.00;96350.38;4963811;28;20471;-75
2022/12/04 08:23:38;;;;;;;0.20;0.20;;;;;;;-1.67;100.00;96352.78;4962387;28;20096;-76
2022/12/04 08:26:27;;;;;;;0.20;0.20;;;;;;;-1.56;100.00;96336.59;4978719;28;20038;-75
2022/12/04 08:29:13;;;;;;;0.20;0.20;;;;;;;-1.57;100.00;96348.09;4975467;28;20050;-75
2022/12/04 08:31:59;;;;;;;0.20;0.20;;;;;;;-1.55;100.00;96354.00;4972951;28;20082;-75
2022/12/04 08:34:45;;;;;;;0.20;0.20;;;;;;;-1.44;100.00;96356.22;4975472;28;20157;-76
2022/12/04 08:37:31;;;;;;;0.20;0.20;;;;;;;-1.47;100.00;96352.13;4972526;28;20559;-75
2022/12/04 08:40:16;;;;;;;0.20;0.20;;;;;;;-1.45;100.00;96350.16;4974839;28;20496;-76
2022/12/04 08:43:02;;;;;;;0.20;0.20;;;;;;;-1.37;100.00;96354.53;4971724;28;20045;-73
2022/12/04 08:46:00;;;;;;;0.20;0.20;;;;;;;-1.29;100.00;96358.88;4976366;28;20050;-75
2022/12/04 08:48:46;;;;;;;0.20;0.20;;;;;;;-1.10;100.00;96353.13;4967385;28;20054;-74
2022/12/04 08:51:35;;;;;;;0.20;0.20;;;;;;;-1.06;100.00;96357.03;4973958;28;20039;-73
2022/12/04 08:54:21;;;;;;;0.20;0.20;;;;;;;-1.09;100.00;96360.00;4975051;28;20550;-73
2022/12/04 08:57:07;;;;;;;0.20;0.20;;;;;;;-1.15;100.00;96358.94;4970410;28;20331;-73
2022/12/04 08:59:53;;;;;;;0.20;0.20;;;;;;;-1.15;100.00;96366.00;4974532;28;20336;-75
2022/12/04 09:02:38;;;;;;;0.20;0.20;;;;;;;-0.94;100.00;96362.66;4972722;28;20740;-74
2022/12/04 09:05:24;;;;;;;0.20;0.20;;;;;;;-1.01;100.00;96354.72;4973532;28;20320;-74
2022/12/04 09:08:12;;;;;;;0.20;0.20;;;;;;;-0.91;100.00;96359.69;4973385;28;20164;-76
2022/12/04 09:11:06;;;;;;;0.20;0.20;;;;;;;-0.85;100.00;96354.56;4975773;28;20323;-74
2022/12/04 09:13:54;;;;;;;0.10;0.10;;;;;;;-0.63;100.00;96370.41;4973885;28;20340;-74
2022/12/04 09:16:40;;;;;;;0.20;0.20;;;;;;;-0.85;100.00;96372.94;4975006;28;20084;-75
2022/12/04 09:19:26;;;;;;;0.20;0.20;;;;;;;-0.78;100.00;96370.38;4978914;28;20061;-76
2022/12/04 09:22:12;;;;;;;0.20;0.20;;;;;;;-0.73;100.00;96377.75;4964437;28;20066;-74
2022/12/04 09:24:58;;;;;;;0.20;0.20;;;;;;;-0.90;100.00;96374.47;4976728;28;20509;-75
2022/12/04 09:27:44;;;;;;;0.20;0.20;;;;;;;-0.96;100.00;96357.59;4973991;28;20046;-75
2022/12/04 09:30:30;;;;;;;0.20;0.20;;;;;;;-0.86;100.00;96367.84;4974265;28;20038;-72
2022/12/04 09:33:16;;;;;;;0.20;0.20;;;;;;;-0.86;100.00;96381.81;4976104;28;20820;-75
2022/12/04 09:36:03;;;;;;;0.20;0.20;;;;;;;-0.81;100.00;96375.19;4961412;28;20359;-73
2022/12/04 09:38:51;;;;;;;0.20;0.20;;;;;;;-0.64;100.00;96374.84;4975459;28;20513;-76
2022/12/04 09:42:08;;;;;;;0.20;0.20;;;;;;;-0.71;100.00;96368.69;4977662;28;20513;-75
2022/12/04 09:45:15;;;;;;;0.20;0.20;;;;;;;-0.61;100.00;96355.28;4974621;28;20041;-74
2022/12/04 09:48:01;;;;;;;0.20;0.20;;;;;;;-0.53;100.00;96352.56;4966631;28;20049;-73
2022/12/04 09:50:49;;;;;;;0.20;0.20;;;;;;;-0.60;100.00;96370.88;4974140;28;20218;-76
2022/12/04 09:53:47;;;;;;;0.20;0.20;;;;;;;-0.66;100.00;96362.88;4973440;28;20062;-76
2022/12/04 09:56:33;;;;;;;0.20;0.20;;;;;;;-0.53;100.00;96367.53;4969705;28;20042;-72
2022/12/04 09:59:26;;;;;;;0.20;0.20;;;;;;;-0.40;100.00;96351.91;4973807;28;20059;-75
2022/12/04 10:02:34;;;;;;;0.20;0.20;;;;;;;-0.43;100.00;96339.97;4973250;28;20129;-73
2022/12/04 10:05:29;;;;;;;0.13;0.13;;;;;;;-0.48;100.00;96338.88;4973215;28;20148;-73
2022/12/04 10:08:40;;;;;;;0.20;0.20;;;;;;;-0.75;100.00;96340.31;4972513;28;20419;-74
2022/12/04 10:11:41;;;;;;;0.22;0.22;;;;;;;-0.58;100.00;96341.78;4959701;28;20052;-73
2022/12/04 10:14:38;;;;;;;0.25;0.25;;;;;;;-0.52;100.00;96342.88;4975434;28;20376;-72
2022/12/04 10:17:40;;;;;;;0.20;0.20;;;;;;;-0.46;100.00;96321.13;4973025;28;20510;-75
2022/12/04 10:20:45;;;;;;;;;;;;;;;-0.59;100.00;96333.06;4959649;28;20116;-75
2022/12/04 10:23:39;;;;;;;0.20;0.20;;;;;;;-0.53;100.00;96333.34;4972706;28;19964;-74
2022/12/04 10:26:35;;;;;;;0.20;0.20;;;;;;;-0.64;100.00;96337.22;4975789;28;20042;-73
2022/12/04 10:29:26;;;;;;;0.20;0.20;;;;;;;-0.53;100.00;96343.88;4963381;28;20252;-75
2022/12/04 10:32:43;;;;;;;0.20;0.20;;;;;;;-0.43;100.00;96331.25;4958845;28;20090;-75
2022/12/04 10:35:32;;;;;;;0.20;0.20;;;;;;;-0.52;100.00;96320.03;4976426;28;20528;-73
2022/12/04 10:38:55;;;;;;;0.20;0.20;;;;;;;-0.45;100.00;96326.19;4967993;28;20120;-75
2022/12/04 10:42:04;;;;;;;0.20;0.20;;;;;;;-0.34;100.00;96319.63;4975665;28;20522;-74
2022/12/04 10:44:50;;;;;;;0.20;0.20;;;;;;;-0.29;100.00;96322.53;4974997;28;20683;-74
2022/12/04 10:47:46;;;;;;;0.20;0.20;;;;;;;-0.37;100.00;96318.19;4964668;28;20049;-75
2022/12/04 10:50:33;;;;;;;0.20;0.20;;;;;;;-0.50;100.00;96319.84;4973912;28;20041;-74
2022/12/04 10:53:27;;;;;;;0.20;0.20;;;;;;;-0.37;100.00;96318.19;4973504;28;20042;-73
2022/12/04 10:56:20;;;;;;;0.20;0.20;;;;;;;-0.43;100.00;96307.59;4967825;28;20053;-74
2022/12/04 10:59:14;;;;;;;0.20;0.20;;;;;;;-0.51;100.00;96331.34;4973245;28;20336;-75
2022/12/04 11:02:23;;;;;;;0.20;0.20;;;;;;;-0.38;100.00;96313.94;4972822;28;20346;-76
2022/12/04 11:05:23;;;;;;;0.20;0.20;;;;;;;-0.34;100.00;96323.06;4975805;28;20589;-75
2022/12/04 11:08:23;;;;;;;0.20;0.20;;;;;;;-0.24;100.00;96309.63;4960440;28;20617;-74
2022/12/04 11:11:13;;;;;;;0.20;0.20;;;;;;;-0.25;100.00;96300.13;4977004;28;20693;-75
2022/12/04 11:14:05;;;;;;;0.20;0.20;;;;;;;-0.18;100.00;96293.13;4975400;28;20486;-75
2022/12/04 11:17:04;;;;;;;0.20;0.20;;;;;;;-0.19;100.00;96293.31;4967112;28;20038;-75
2022/12/04 11:20:24;;;;;;;0.20;0.20;;;;;;;-0.17;100.00;96297.38;4966028;28;20113;-75
2022/12/04 11:23:15;;;;;;;0.20;0.20;;;;;;;-0.21;100.00;96290.88;4972236;28;20092;-75
2022/12/04 11:26:01;;;;;;;0.20;0.20;;;;;;;-0.54;100.00;96284.38;4968234;28;20133;-73
2022/12/04 11:28:53;;;;;;;0.20;0.20;;;;;;;-0.44;100.00;96301.53;4980846;28;20435;-75
2022/12/04 11:31:39;;;;;;;0.20;0.20;;;;;;;-0.45;100.00;96289.38;4978039;28;20053;-75
2022/12/04 11:34:34;;;;;;;0.20;0.20;;;;;;;-0.50;100.00;96285.66;4971648;28;20046;-73
2022/12/04 11:37:25;;;;;;;0.20;0.20;;;;;;;-0.51;100.00;96291.91;4963339;28;20050;-75
2022/12/04 11:40:17;;;;;;;0.20;0.20;;;;;;;-0.74;100.00;96282.31;4980247;28;20380;-74
2022/12/04 11:43:11;;;;;;;0.20;0.20;;;;;;;-0.58;100.00;96279.50;4622447;28;10000160;-73
2022/12/04 11:46:04;;;;;;;0.20;0.20;;;;;;;-0.38;100.00;96266.63;4633364;28;10000093;-73
2022/12/04 11:48:50;;;;;;;0.20;0.20;;;;;;;-0.40;100.00;96268.59;4976634;28;20096;-76
2022/12/04 11:52:01;;;;;;;0.20;0.20;;;;;;;-0.45;100.00;96252.56;4970907;28;20415;-76
2022/12/04 11:55:06;;;;;;;0.20;0.20;;;;;;;-0.50;100.00;96268.06;4977312;28;20048;-76
2022/12/04 11:58:10;;;;;;;0.20;0.20;;;;;;;-0.52;100.00;96264.81;4978171;28;20089;-75
2022/12/04 12:01:03;;;;;;;0.20;0.20;;;;;;;-0.44;100.00;96258.66;4970492;28;20498;-76
2022/12/04 12:04:30;;;;;;;0.20;0.20;;;;;;;-0.31;100.00;96246.47;4975769;28;20200;-75
2022/12/04 12:07:39;;;;;;;0.20;0.20;;;;;;;-0.43;100.00;96250.56;4929948;28;20513;-75
2022/12/04 12:10:35;;;;;;;0.20;0.20;;;;;;;-0.26;100.00;96259.03;4980088;28;20045;-76
2022/12/04 12:13:21;;;;;;;0.20;0.20;;;;;;;-0.31;100.00;96267.50;4980572;28;20104;-75
2022/12/04 12:16:25;;;;;;;0.20;0.20;;;;;;;-0.34;100.00;96256.53;4978015;28;20038;-76
2022/12/04 12:19:43;;;;;;;0.20;0.20;;;;;;;-0.22;100.00;96256.88;4980009;28;20340;-74
2022/12/04 12:22:48;;;;;;;0.20;0.20;;;;;;;-0.23;100.00;96245.53;4954700;28;20137;-76
2022/12/04 12:25:51;;;;;;;0.30;0.30;;;;;;;-0.18;100.00;96248.41;4965281;28;20046;-76
2022/12/04 12:29:09;;;;;;;0.20;0.20;;;;;;;-0.01;100.00;96251.63;4966933;28;20463;-76
2022/12/04 12:32:03;;;;;;;0.10;0.10;;;;;;;-0.03;100.00;96264.97;4969236;28;20490;-74
2022/12/04 12:34:50;;;;;;;0.20;0.20;;;;;;;-0.05;100.00;96255.63;4976630;28;20097;-76
2022/12/04 12:37:45;;;;;;;0.30;0.30;;;;;;;0.04;100.00;96257.13;4977965;28;20063;-76
2022/12/04 12:40:36;;;;;;;0.30;0.30;;;;;;;0.05;100.00;96265.84;4975021;28;20315;-77
2022/12/04 12:43:31;;;;;;;0.20;0.20;;;;;;;-0.06;100.00;96267.16;4975464;28;20105;-77
2022/12/04 12:46:29;;;;;;;0.20;0.20;;;;;;;-0.11;100.00;96272.97;4979131;28;20073;-76
2022/12/04 12:49:44;;;;;;;0.20;0.20;;;;;;;-0.12;100.00;96270.53;4976767;28;20092;-76
2022/12/04 12:53:00;;;;;;;0.30;0.30;;;;;;;-0.10;100.00;96268.53;4975845;28;20825;-76
2022/12/04 12:55:51;;;;;;;0.20;0.20;;;;;;;-0.16;100.00;96269.25;4964716;28;20108;-76
2022/12/04 12:58:43;;;;;;;0.25;0.25;;;;;;;0.03;100.00;96265.22;4961951;28;20048;-75
2022/12/04 13:01:38;;;;;;;0.20;0.20;;;;;;;0.10;100.00;96261.66;4975453;28;20046;-76
2022/12/04 13:04:47;;;;;;;0.20;0.20;;;;;;;-0.10;100.00;96271.16;4967378;28;20639;-75
2022/12/04 13:08:09;;;;;;;0.20;0.20;;;;;;;0.06;100.00;96270.09;4977777;28;20050;-74
2022/12/04 13:11:03;;;;;;;0.20;0.20;;;;;;;-0.13;100.00;96282.06;4956524;28;20433;-75
2022/12/04 13:14:02;;;;;;;0.20;0.20;;;;;;;-0.52;100.00;96279.78;4973459;28;20611;-76
2022/12/04 13:16:54;;;;;;;0.20;0.20;;;;;;;-0.54;100.00;96269.47;4978996;28;20076;-76
2022/12/04 13:19:52;;;;;;;0.20;0.20;;;;;;;-0.40;100.00;96258.06;4973371;28;20074;-76
2022/12/04 13:23:22;;;;;;;0.20;0.20;;;;;;;-0.34;100.00;96257.34;4977683;28;20034;-75
2022/12/04 13:26:39;;;;;;;0.20;0.20;;;;;;;-0.21;100.00;96254.06;4977150;28;20467;-75
2022/12/04 13:29:57;;;;;;;0.20;0.20;;;;;;;-0.14;100.00;96248.88;4977085;28;20113;-74
2022/12/04 13:33:14;;;;;;;0.30;0.30;;;;;;;-0.04;100.00;96244.91;4975731;28;20053;-76
2022/12/04 13:36:18;;;;;;;0.30;0.30;;;;;;;0.02;100.00;96248.63;4974742;28;20633;-76
2022/12/04 13:39:38;;;;;;;0.20;0.20;;;;;;;0.01;100.00;96243.56;4974547;28;20037;-76